createdAt,value
2023-04-13T00:00:13.364Z,4.13
2023-04-13T00:02:40.159Z,3.60
2023-04-13T00:05:10.093Z,4.15
2023-04-13T00:07:38.605Z,3.70
2023-04-13T00:10:08.757Z,4.32
2023-04-13T00:15:05.899Z,4.20
2023-04-13T00:17:33.589Z,3.78
2023-04-13T00:20:00.453Z,4.03
2023-04-13T00:22:30.391Z,4.00
2023-04-13T00:24:57.801Z,4.50
2023-04-13T00:27:27.387Z,4.43
2023-04-13T00:29:57.658Z,4.07
2023-04-13T00:34:53.210Z,4.78
2023-04-13T00:37:20.157Z,4.78
2023-04-13T00:39:46.935Z,4.55
2023-04-13T00:42:14.031Z,4.45
2023-04-13T00:44:40.650Z,4.68
2023-04-13T00:47:07.961Z,4.75
2023-04-13T00:49:35.562Z,5.60
2023-04-13T00:52:03.141Z,5.32
2023-04-13T00:54:30.423Z,5.28
2023-04-13T00:56:58.897Z,5.13
2023-04-13T00:59:27.775Z,5.07
2023-04-13T01:01:57.621Z,5.70
2023-04-13T01:04:25.770Z,5.95
2023-04-13T01:07:03.243Z,5.80
2023-04-13T01:09:44.357Z,5.65
2023-04-13T01:12:36.729Z,6.30
2023-04-13T01:15:11.393Z,6.00
2023-04-13T01:17:40.130Z,7.00
2023-04-13T01:20:10.644Z,7.20
2023-04-13T01:22:39.767Z,7.57
2023-04-13T01:25:32.602Z,7.35
2023-04-13T01:28:07.516Z,6.53
2023-04-13T01:30:35.854Z,7.38
2023-04-13T01:33:04.447Z,7.35
2023-04-13T01:35:31.952Z,6.70
2023-04-13T01:37:59.232Z,7.25
2023-04-13T01:40:29.148Z,6.75
2023-04-13T01:42:56.565Z,7.55
2023-04-13T01:45:27.377Z,8.05
2023-04-13T01:48:06.353Z,9.80
2023-04-13T01:50:45.751Z,8.48
2023-04-13T01:53:17.723Z,8.93
2023-04-13T01:55:45.395Z,8.90
2023-04-13T01:58:14.269Z,9.48
2023-04-13T02:00:42.269Z,9.65
2023-04-13T02:03:10.998Z,10.25
2023-04-13T02:05:38.824Z,10.50
2023-04-13T02:08:06.334Z,10.13
2023-04-13T02:10:34.882Z,9.82
2023-04-13T02:13:01.985Z,10.73
2023-04-13T02:15:28.613Z,9.95
2023-04-13T02:17:55.387Z,10.32
2023-04-13T02:20:22.219Z,10.20
2023-04-13T02:22:48.916Z,10.50
2023-04-13T02:25:15.706Z,10.07
2023-04-13T02:27:42.947Z,10.20
2023-04-13T02:30:10.205Z,11.20
2023-04-13T02:32:39.634Z,11.45
2023-04-13T02:35:10.952Z,11.95
2023-04-13T02:37:40.141Z,12.07
2023-04-13T02:40:10.643Z,13.25
2023-04-13T02:42:41.279Z,12.85
2023-04-13T02:45:12.247Z,13.13
2023-04-13T02:47:40.279Z,13.90
2023-04-13T02:50:07.759Z,14.27
2023-04-13T02:52:34.339Z,13.32
2023-04-13T02:55:01.613Z,13.43
2023-04-13T02:57:28.372Z,12.77
2023-04-13T02:59:54.961Z,12.85
2023-04-13T03:02:21.826Z,13.15
2023-04-13T03:04:48.884Z,12.35
2023-04-13T03:07:17.257Z,13.55
2023-04-13T03:09:44.777Z,14.20
2023-04-13T03:12:11.483Z,13.13
2023-04-13T03:14:38.208Z,12.88
2023-04-13T03:17:05.236Z,14.75
2023-04-13T03:19:32.750Z,12.85
2023-04-13T03:21:59.394Z,12.63
2023-04-13T03:24:29.111Z,12.10
2023-04-13T03:26:57.063Z,11.60
2023-04-13T03:29:24.476Z,11.93
2023-04-13T03:31:51.569Z,11.30
2023-04-13T03:34:19.021Z,11.15
2023-04-13T03:36:45.890Z,11.57
2023-04-13T03:39:12.985Z,12.02
2023-04-13T03:41:39.710Z,11.48
2023-04-13T03:44:07.872Z,11.50
2023-04-13T03:46:37.561Z,11.98
2023-04-13T03:49:09.790Z,11.30
2023-04-13T03:51:39.566Z,10.70
2023-04-13T03:54:06.302Z,10.13
2023-04-13T03:56:33.577Z,9.88
2023-04-13T03:59:00.263Z,10.40
2023-04-13T04:01:27.294Z,10.73
2023-04-13T04:03:57.317Z,10.40
2023-04-13T04:06:24.493Z,9.63
2023-04-13T04:08:51.417Z,10.68
2023-04-13T04:11:18.086Z,10.65
2023-04-13T04:13:44.974Z,9.63
2023-04-13T04:16:11.890Z,10.10
2023-04-13T04:18:39.297Z,10.20
2023-04-13T04:21:06.967Z,9.85
2023-04-13T04:23:34.872Z,9.02
2023-04-13T04:26:03.020Z,8.70
2023-04-13T04:28:30.610Z,9.73
2023-04-13T04:31:01.028Z,8.82
2023-04-13T04:33:28.008Z,8.13
2023-04-13T04:35:54.645Z,7.82
2023-04-13T04:38:25.053Z,7.95
2023-04-13T04:40:57.572Z,6.78
2023-04-13T04:43:27.208Z,7.95
2023-04-13T04:45:57.607Z,8.25
2023-04-13T04:48:27.073Z,7.95
2023-04-13T04:50:56.226Z,8.27
2023-04-13T04:53:23.526Z,8.80
2023-04-13T04:55:50.545Z,9.10
2023-04-13T04:58:19.568Z,8.50
2023-04-13T05:00:47.947Z,8.13
2023-04-13T05:03:14.890Z,8.80
2023-04-13T05:05:43.157Z,8.30
2023-04-13T05:08:11.648Z,8.65
2023-04-13T05:10:45.474Z,8.07
2023-04-13T05:13:12.954Z,8.27
2023-04-13T05:15:39.635Z,8.95
2023-04-13T05:18:06.434Z,8.35
2023-04-13T05:20:34.791Z,7.57
2023-04-13T05:23:01.770Z,8.35
2023-04-13T05:25:28.966Z,8.25
2023-04-13T05:27:56.210Z,8.82
2023-04-13T05:30:23.159Z,8.23
2023-04-13T05:32:49.792Z,8.15
2023-04-13T05:35:16.439Z,8.30
2023-04-13T05:37:44.596Z,8.50
2023-04-13T05:40:14.446Z,9.35
2023-04-13T05:42:42.965Z,8.65
2023-04-13T05:45:10.613Z,7.43
2023-04-13T05:47:38.868Z,9.15
2023-04-13T05:50:06.572Z,8.95
2023-04-13T05:52:33.219Z,8.63
2023-04-13T05:54:59.827Z,8.32
2023-04-13T05:57:27.719Z,8.60
2023-04-13T05:59:54.953Z,8.30
2023-04-13T06:02:22.789Z,8.05
2023-04-13T06:04:52.512Z,9.00
2023-04-13T06:07:19.997Z,8.07
2023-04-13T06:09:46.599Z,8.35
2023-04-13T06:12:13.655Z,8.40
2023-04-13T06:14:41.740Z,8.43
2023-04-13T06:17:08.581Z,8.80
2023-04-13T06:19:35.490Z,8.38
2023-04-13T06:22:02.214Z,8.30
2023-04-13T06:24:28.874Z,7.32
2023-04-13T06:26:55.615Z,8.25
2023-04-13T06:29:23.667Z,7.68
2023-04-13T06:31:50.638Z,8.32
2023-04-13T06:34:17.925Z,8.35
2023-04-13T06:36:44.636Z,7.40
2023-04-13T06:39:11.650Z,8.02
2023-04-13T06:41:38.315Z,7.38
2023-04-13T06:44:05.261Z,7.43
2023-04-13T06:46:32.016Z,7.10
2023-04-13T06:48:58.941Z,8.25
2023-04-13T06:51:27.073Z,7.70
2023-04-13T06:53:54.699Z,7.90
2023-04-13T06:56:21.501Z,7.60
2023-04-13T06:58:48.242Z,6.15
2023-04-13T07:01:16.149Z,7.45
2023-04-13T07:03:44.034Z,6.68
2023-04-13T07:06:11.625Z,6.22
2023-04-13T07:08:38.255Z,6.35
2023-04-13T07:11:05.111Z,6.05
2023-04-13T07:13:31.727Z,6.15
2023-04-13T07:15:58.410Z,6.43
2023-04-13T07:18:25.517Z,5.65
2023-04-13T07:20:53.060Z,5.53
2023-04-13T07:23:19.769Z,5.40
2023-04-13T07:25:46.455Z,6.55
2023-04-13T07:28:13.132Z,5.78
2023-04-13T07:30:44.061Z,5.80
2023-04-13T07:33:11.153Z,5.53
2023-04-13T07:35:38.405Z,4.65
2023-04-13T07:38:06.210Z,5.18
2023-04-13T07:40:32.966Z,4.63
2023-04-13T07:42:59.592Z,4.25
2023-04-13T07:45:29.150Z,4.35
2023-04-13T07:47:55.867Z,4.18
2023-04-13T07:50:23.079Z,4.43
2023-04-13T07:52:49.837Z,4.65
2023-04-13T07:55:16.786Z,4.00
2023-04-13T07:57:43.697Z,4.65
2023-04-13T08:00:12.268Z,3.47
2023-04-13T08:02:39.199Z,4.47
2023-04-13T08:05:07.004Z,4.03
2023-04-13T08:07:33.939Z,4.28
2023-04-13T08:10:02.001Z,4.60
2023-04-13T08:12:28.705Z,3.65
2023-04-13T08:14:55.319Z,3.42
2023-04-13T08:17:21.975Z,2.95
2023-04-13T08:19:48.785Z,2.60
2023-04-13T08:22:15.424Z,2.67
2023-04-13T08:24:42.149Z,2.75
2023-04-13T08:27:08.835Z,2.40
2023-04-13T08:29:35.484Z,2.53
2023-04-13T08:32:02.369Z,2.13
2023-04-13T08:34:29.187Z,2.53
2023-04-13T08:36:55.877Z,2.70
2023-04-13T08:39:22.870Z,2.67
2023-04-13T08:41:49.663Z,2.50
2023-04-13T08:44:17.604Z,2.40
2023-04-13T08:46:46.011Z,1.90
2023-04-13T08:49:13.573Z,2.10
2023-04-13T08:51:43.475Z,1.75
2023-04-13T08:54:12.799Z,1.48
2023-04-13T08:56:45.876Z,1.83
2023-04-13T08:59:16.047Z,1.83
2023-04-13T09:01:45.393Z,2.17
2023-04-13T09:04:14.126Z,1.30
2023-04-13T09:06:43.055Z,1.45
2023-04-13T09:09:13.484Z,1.50
2023-04-13T09:11:42.091Z,1.20
2023-04-13T09:14:10.170Z,1.10
2023-04-13T09:16:44.107Z,1.10
2023-04-13T09:19:12.896Z,1.50
2023-04-13T09:21:41.189Z,1.00
2023-04-13T09:24:08.610Z,1.65
2023-04-13T09:26:46.671Z,1.60
2023-04-13T09:29:16.441Z,1.20
2023-04-13T09:31:45.544Z,1.23
2023-04-13T09:34:12.773Z,1.47
2023-04-13T09:36:52.987Z,1.48
2023-04-13T09:39:28.856Z,1.48
2023-04-13T09:41:56.058Z,1.10
2023-04-13T09:44:31.009Z,1.17
2023-04-13T09:46:59.323Z,1.10
2023-04-13T09:49:26.886Z,1.00
2023-04-13T09:51:54.762Z,1.27
2023-04-13T09:54:22.090Z,1.13
2023-04-13T09:56:54.672Z,1.20
2023-04-13T09:59:25.596Z,1.08
2023-04-13T10:01:54.118Z,1.02
2023-04-13T10:04:21.105Z,1.00
2023-04-13T10:06:48.326Z,1.00
2023-04-13T10:09:15.743Z,1.08
2023-04-13T10:11:45.983Z,1.15
2023-04-13T10:17:15.830Z,0.95
2023-04-13T10:19:49.523Z,1.05
2023-04-13T10:22:17.610Z,1.25
2023-04-13T10:24:44.704Z,1.00
2023-04-13T10:27:22.537Z,0.93
2023-04-13T10:29:49.924Z,1.05
2023-04-13T10:32:25.663Z,1.08
2023-04-13T10:34:53.393Z,0.90
2023-04-13T10:37:23.266Z,1.02
2023-04-13T10:40:01.890Z,0.90
2023-04-13T10:42:51.140Z,1.00
2023-04-13T10:47:47.496Z,0.98
2023-04-13T10:50:25.196Z,1.48
2023-04-13T10:52:59.170Z,1.17
2023-04-13T10:55:27.298Z,1.00
2023-04-13T10:57:56.371Z,1.45
2023-04-13T11:00:42.428Z,1.35
2023-04-13T11:03:15.367Z,1.08
2023-04-13T11:05:43.421Z,0.90
2023-04-13T11:08:16.081Z,1.00
2023-04-13T11:10:42.787Z,1.13
2023-04-13T11:13:09.417Z,1.20
2023-04-13T11:15:36.353Z,0.90
2023-04-13T11:18:03.777Z,1.27
2023-04-13T11:20:42.047Z,0.88
2023-04-13T11:23:15.679Z,1.05
2023-04-13T11:26:02.766Z,1.10
2023-04-13T11:28:41.126Z,0.98
2023-04-13T11:31:08.557Z,1.25
2023-04-13T11:33:38.660Z,1.10
2023-04-13T11:36:07.843Z,0.88
2023-04-13T11:38:34.543Z,1.08
2023-04-13T11:41:15.945Z,1.10
2023-04-13T11:43:46.154Z,1.00
2023-04-13T11:46:15.361Z,1.10
2023-04-13T11:48:43.721Z,0.88
2023-04-13T11:51:11.337Z,1.05
2023-04-13T11:53:39.520Z,1.13
2023-04-13T11:56:07.358Z,1.10
2023-04-13T11:58:34.515Z,1.00
2023-04-13T12:01:14.010Z,1.42
2023-04-13T12:03:59.051Z,1.10
2023-04-13T12:06:33.003Z,1.05
2023-04-13T12:09:10.893Z,1.30
2023-04-13T12:11:46.352Z,1.23
2023-04-13T12:14:47.713Z,0.70
2023-04-13T12:17:34.832Z,0.90
2023-04-13T12:20:00.654Z,1.30
2023-04-13T12:22:54.941Z,0.90
2023-04-13T12:25:25.168Z,0.90
2023-04-13T12:27:53.601Z,1.17
2023-04-13T12:30:21.782Z,0.88
2023-04-13T12:32:53.351Z,0.90
2023-04-13T12:35:20.544Z,1.00
2023-04-13T12:37:48.432Z,1.08
2023-04-13T12:40:16.253Z,0.82
2023-04-13T12:42:43.801Z,1.23
2023-04-13T12:45:10.777Z,1.20
2023-04-13T12:47:37.924Z,0.70
2023-04-13T12:50:09.321Z,0.90
2023-04-13T12:52:39.207Z,0.80
2023-04-13T12:55:06.773Z,1.20
2023-04-13T12:57:33.486Z,1.20
2023-04-13T13:00:00.693Z,1.00
2023-04-13T13:02:30.995Z,0.77
2023-04-13T13:04:59.046Z,1.30
2023-04-13T13:07:26.262Z,0.80
2023-04-13T13:09:53.000Z,1.00
2023-04-13T13:12:19.622Z,0.90
2023-04-13T13:14:46.410Z,1.20
2023-04-13T13:17:13.063Z,1.10
2023-04-13T13:19:39.663Z,1.33
2023-04-13T13:22:06.425Z,2.50
2023-04-13T13:24:33.242Z,1.20
2023-04-13T13:29:33.162Z,1.08
2023-04-13T13:32:00.681Z,0.80
2023-04-13T13:34:27.462Z,1.17
2023-04-13T13:36:54.117Z,0.93
2023-04-13T13:39:22.321Z,1.13
2023-04-13T13:41:49.659Z,1.10
2023-04-13T13:44:16.851Z,0.85
2023-04-13T13:46:43.828Z,0.60
2023-04-13T13:49:11.792Z,0.70
2023-04-13T13:51:38.479Z,0.65
2023-04-13T13:54:05.228Z,0.85
2023-04-13T13:56:32.058Z,3.42
2023-04-13T13:58:59.111Z,1.30
2023-04-13T14:01:26.008Z,1.00
2023-04-13T14:03:53.211Z,0.90
2023-04-13T14:06:20.419Z,1.00
2023-04-13T14:08:47.147Z,1.40
2023-04-13T14:11:13.873Z,1.00
2023-04-13T14:13:40.579Z,0.52
2023-04-13T14:16:07.734Z,0.70
2023-04-13T14:18:34.612Z,0.82
2023-04-13T14:21:01.395Z,0.80
2023-04-13T14:23:28.280Z,0.82
2023-04-13T14:25:55.106Z,0.70
2023-04-13T14:28:21.835Z,0.70
2023-04-13T14:30:48.506Z,1.00
2023-04-13T14:33:16.191Z,1.00
2023-04-13T14:35:43.180Z,0.77
2023-04-13T14:38:09.857Z,1.00
2023-04-13T14:40:36.522Z,1.00
2023-04-13T14:43:03.568Z,0.93
2023-04-13T14:45:30.294Z,0.70
2023-04-13T14:47:57.125Z,1.10
2023-04-13T14:50:24.261Z,1.75
2023-04-13T14:52:50.988Z,1.00
2023-04-13T14:55:17.875Z,0.68
2023-04-13T14:57:48.036Z,1.10
2023-04-13T15:02:45.044Z,0.70
2023-04-13T15:05:11.894Z,0.82
2023-04-13T15:07:38.580Z,0.80
2023-04-13T15:10:08.396Z,0.70
2023-04-13T15:12:35.203Z,0.77
2023-04-13T15:15:01.853Z,0.70
2023-04-13T15:17:29.607Z,0.90
2023-04-13T15:19:56.387Z,0.82
2023-04-13T15:22:23.105Z,0.90
2023-04-13T15:24:49.896Z,0.60
2023-04-13T15:27:16.598Z,0.95
2023-04-13T15:29:43.303Z,0.90
2023-04-13T15:32:10.052Z,1.30
2023-04-13T15:34:36.864Z,0.80
2023-04-13T15:37:03.539Z,0.95
2023-04-13T15:39:30.349Z,0.70
2023-04-13T15:41:57.804Z,1.02
2023-04-13T15:44:24.848Z,0.50
2023-04-13T15:46:51.707Z,0.93
2023-04-13T15:49:18.366Z,0.82
2023-04-13T15:51:45.022Z,0.90
2023-04-13T15:54:11.816Z,1.10
2023-04-13T15:56:38.463Z,0.85
2023-04-13T15:59:05.255Z,1.00
2023-04-13T16:01:49.222Z,1.30
2023-04-13T16:04:16.353Z,6.90
2023-04-13T16:06:43.114Z,19.33
2023-04-13T16:09:10.129Z,23.55
2023-04-13T16:11:39.952Z,5.35
2023-04-13T16:14:09.828Z,3.05
2023-04-13T16:16:44.452Z,3.95
2023-04-13T16:19:12.309Z,2.95
2023-04-13T16:21:40.274Z,1.40
2023-04-13T16:24:08.549Z,1.92
2023-04-13T16:26:35.369Z,0.90
2023-04-13T16:29:03.176Z,2.17
2023-04-13T16:31:30.439Z,0.90
2023-04-13T16:33:57.481Z,0.90
2023-04-13T16:36:24.274Z,1.20
2023-04-13T16:38:51.397Z,3.10
2023-04-13T16:41:18.056Z,1.20
2023-04-13T16:43:44.801Z,1.00
2023-04-13T16:46:14.442Z,0.90
2023-04-13T16:48:41.160Z,2.60
2023-04-13T16:51:08.130Z,1.83
2023-04-13T16:53:34.902Z,1.55
2023-04-13T16:56:01.639Z,1.50
2023-04-13T16:58:28.285Z,0.90
2023-04-13T17:00:54.915Z,1.17
2023-04-13T17:03:21.894Z,1.50
2023-04-13T17:05:48.650Z,1.48
2023-04-13T17:08:17.026Z,1.50
2023-04-13T17:10:43.915Z,1.75
2023-04-13T17:13:10.705Z,1.63
2023-04-13T17:15:37.317Z,1.88
2023-04-13T17:18:04.695Z,2.78
2023-04-13T17:20:31.822Z,2.38
2023-04-13T17:22:58.421Z,3.47
2023-04-13T17:25:25.057Z,3.42
2023-04-13T17:27:53.251Z,5.10
2023-04-13T17:30:20.142Z,4.93
2023-04-13T17:32:47.231Z,7.35
2023-04-13T17:35:14.437Z,3.97
2023-04-13T17:37:41.474Z,3.47
2023-04-13T17:40:08.731Z,7.22
2023-04-13T17:42:35.501Z,9.23
2023-04-13T17:45:02.370Z,14.77
2023-04-13T17:47:29.043Z,17.38
2023-04-13T17:49:55.748Z,18.73
2023-04-13T17:52:22.724Z,18.52
2023-04-13T17:54:49.366Z,13.10
2023-04-13T17:57:16.005Z,17.02
2023-04-13T17:59:43.631Z,14.35
2023-04-13T18:02:10.369Z,17.23
2023-04-13T18:04:37.152Z,13.95
2023-04-13T18:07:03.802Z,11.93
2023-04-13T18:09:31.370Z,13.75
2023-04-13T18:11:58.005Z,11.25
2023-04-13T18:14:24.752Z,12.77
2023-04-13T18:16:51.566Z,9.52
2023-04-13T18:19:18.188Z,10.18
2023-04-13T18:21:44.796Z,9.10
2023-04-13T18:24:11.474Z,7.78
2023-04-13T18:26:38.970Z,7.03
2023-04-13T18:29:05.688Z,7.28
2023-04-13T18:31:32.412Z,6.75
2023-04-13T18:33:59.324Z,6.50
2023-04-13T18:36:26.755Z,6.75
2023-04-13T18:38:54.971Z,6.60
2023-04-13T18:41:22.205Z,6.30
2023-04-13T18:43:48.867Z,6.40
2023-04-13T18:46:16.034Z,7.20
2023-04-13T18:48:42.671Z,6.72
2023-04-13T18:51:10.559Z,6.70
2023-04-13T18:53:37.251Z,6.70
2023-04-13T18:56:03.909Z,6.00
2023-04-13T18:58:30.683Z,5.07
2023-04-13T19:00:57.313Z,4.68
2023-04-13T19:03:24.056Z,4.32
2023-04-13T19:05:50.868Z,3.65
2023-04-13T19:08:17.704Z,3.45
2023-04-13T19:10:45.153Z,3.22
2023-04-13T19:13:11.960Z,3.03
2023-04-13T19:15:39.164Z,3.10
2023-04-13T19:18:06.551Z,2.50
2023-04-13T19:20:33.270Z,2.55
2023-04-13T19:22:59.885Z,2.47
2023-04-13T19:25:26.668Z,2.47
2023-04-13T19:27:53.307Z,2.30
2023-04-13T19:30:20.054Z,1.92
2023-04-13T19:32:48.747Z,2.05
2023-04-13T19:35:16.514Z,1.80
2023-04-13T19:37:43.376Z,1.70
2023-04-13T19:40:13.508Z,1.67
2023-04-13T19:42:43.317Z,1.90
2023-04-13T19:45:10.697Z,2.08
2023-04-13T19:47:38.465Z,2.25
2023-04-13T19:50:07.396Z,2.47
2023-04-13T19:52:34.143Z,2.00
2023-04-13T19:55:01.218Z,2.28
2023-04-13T19:57:28.513Z,1.95
2023-04-13T19:59:55.198Z,1.88
2023-04-13T20:02:22.044Z,2.58
2023-04-13T20:04:52.253Z,2.03
2023-04-13T20:07:19.116Z,1.80
2023-04-13T20:09:46.444Z,2.00
2023-04-13T20:12:13.478Z,2.13
2023-04-13T20:14:42.390Z,2.20
2023-04-13T20:17:10.516Z,2.42
2023-04-13T20:19:37.264Z,2.20
2023-04-13T20:22:04.869Z,2.45
2023-04-13T20:24:31.858Z,2.28
2023-04-13T20:26:59.010Z,2.30
2023-04-13T20:29:27.434Z,2.13
2023-04-13T20:31:54.896Z,2.42
2023-04-13T20:34:22.259Z,2.40
2023-04-13T20:36:49.112Z,2.15
2023-04-13T20:39:18.558Z,2.28
2023-04-13T20:41:55.178Z,2.55
2023-04-13T20:44:25.714Z,2.45
2023-04-13T20:46:54.141Z,2.58
2023-04-13T20:49:23.181Z,2.67
2023-04-13T20:51:53.839Z,2.58
2023-04-13T20:54:21.495Z,2.45
2023-04-13T20:56:49.124Z,2.53
2023-04-13T20:59:17.027Z,2.22
2023-04-13T21:01:44.027Z,2.42
2023-04-13T21:04:11.835Z,3.22
2023-04-13T21:06:38.586Z,2.70
2023-04-13T21:09:05.665Z,3.40
2023-04-13T21:11:32.368Z,3.28
2023-04-13T21:13:59.118Z,3.38
2023-04-13T21:16:26.506Z,3.83
2023-04-13T21:18:54.058Z,3.80
2023-04-13T21:21:23.397Z,4.13
2023-04-13T21:23:53.275Z,4.63
2023-04-13T21:26:20.819Z,4.95
2023-04-13T21:28:47.544Z,5.47
2023-04-13T21:31:14.385Z,5.22
2023-04-13T21:33:41.254Z,5.05
2023-04-13T21:38:40.946Z,5.53
2023-04-13T21:41:18.565Z,5.82
2023-04-13T21:43:45.946Z,5.80
2023-04-13T21:46:14.111Z,6.53
2023-04-13T21:48:41.730Z,5.47
2023-04-13T21:51:09.135Z,5.45
2023-04-13T21:53:37.408Z,5.88
2023-04-13T21:56:05.790Z,6.25
2023-04-13T21:58:43.568Z,6.57
2023-04-13T22:01:11.883Z,5.82
2023-04-13T22:03:40.517Z,6.22
2023-04-13T22:06:09.637Z,6.10
2023-04-13T22:08:37.038Z,6.15
2023-04-13T22:11:04.148Z,5.72
2023-04-13T22:13:30.892Z,6.25
2023-04-13T22:15:57.909Z,6.05
2023-04-13T22:18:24.833Z,6.30
2023-04-13T22:20:51.550Z,6.30
2023-04-13T22:23:18.740Z,6.53
2023-04-13T22:26:01.069Z,6.20
2023-04-13T22:28:28.677Z,8.38
2023-04-13T22:30:55.377Z,8.75
2023-04-13T22:33:22.231Z,8.85
2023-04-13T22:35:51.936Z,9.63
2023-04-13T22:38:19.329Z,11.00
2023-04-13T22:40:46.060Z,11.82
2023-04-13T22:43:12.715Z,10.95
2023-04-13T22:45:39.372Z,10.13
2023-04-13T22:48:06.501Z,9.48
2023-04-13T22:50:33.274Z,11.68
2023-04-13T22:53:00.038Z,10.93
2023-04-13T22:55:26.721Z,11.60
2023-04-13T22:57:53.356Z,11.60
2023-04-13T23:00:21.119Z,11.07
2023-04-13T23:02:50.485Z,11.52
2023-04-13T23:05:17.922Z,11.07
2023-04-13T23:07:44.644Z,11.05
2023-04-13T23:10:11.254Z,10.70
2023-04-13T23:12:38.088Z,10.43
2023-04-13T23:15:05.342Z,9.27
2023-04-13T23:17:32.081Z,9.52
2023-04-13T23:19:58.775Z,9.05
2023-04-13T23:22:25.495Z,9.43
2023-04-13T23:24:53.231Z,8.25
2023-04-13T23:27:19.978Z,7.93
2023-04-13T23:29:49.980Z,6.93
2023-04-13T23:32:16.633Z,6.68
2023-04-13T23:34:43.657Z,6.50
2023-04-13T23:37:10.670Z,6.72
2023-04-13T23:39:38.019Z,6.80
2023-04-13T23:42:05.013Z,7.63
2023-04-13T23:44:31.639Z,8.00
2023-04-13T23:46:58.305Z,6.70
2023-04-13T23:49:25.036Z,6.15
2023-04-13T23:51:51.695Z,5.63
2023-04-13T23:54:18.345Z,5.85
2023-04-13T23:56:45.062Z,5.85
2023-04-13T23:59:12.062Z,5.63
